createdAt,value
2018-12-20T00:01:15.487Z,76.62
2018-12-20T00:03:43.938Z,76.91
2018-12-20T00:06:12.453Z,76.96
2018-12-20T00:08:40.884Z,76.94
2018-12-20T00:11:09.444Z,76.98
2018-12-20T00:13:38.032Z,76.98
2018-12-20T00:16:06.519Z,76.40
2018-12-20T00:18:35.321Z,76.40
2018-12-20T00:21:03.868Z,76.52
2018-12-20T00:23:32.334Z,76.06
2018-12-20T00:26:00.886Z,76.49
2018-12-20T00:28:29.408Z,76.84
2018-12-20T00:30:57.973Z,76.64
2018-12-20T00:33:26.886Z,77.28
2018-12-20T00:35:55.413Z,77.31
2018-12-20T00:38:23.879Z,76.35
2018-12-20T00:40:52.836Z,76.43
2018-12-20T00:43:21.386Z,75.76
2018-12-20T00:45:49.908Z,76.17
2018-12-20T00:48:18.441Z,76.15
2018-12-20T00:50:46.935Z,75.85
2018-12-20T00:53:15.776Z,75.39
2018-12-20T00:55:44.256Z,75.39
2018-12-20T00:58:12.813Z,75.73
2018-12-20T01:00:41.831Z,75.18
2018-12-20T01:03:10.460Z,75.82
2018-12-20T01:05:39.054Z,75.88
2018-12-20T01:08:07.644Z,74.97
2018-12-20T01:10:36.368Z,75.03
2018-12-20T01:13:04.947Z,74.95
2018-12-20T01:15:33.681Z,75.25
2018-12-20T01:18:02.159Z,75.25
2018-12-20T01:20:30.825Z,74.96
2018-12-20T01:22:59.598Z,74.95
2018-12-20T01:25:28.136Z,75.20
2018-12-20T01:27:57.538Z,75.25
2018-12-20T01:30:26.517Z,75.49
2018-12-20T01:32:55.264Z,75.76
2018-12-20T01:35:23.753Z,75.35
2018-12-20T01:37:52.422Z,75.72
2018-12-20T01:40:21.119Z,76.09
2018-12-20T01:42:50.869Z,75.86
2018-12-20T01:45:19.590Z,76.02
2018-12-20T01:47:48.436Z,75.72
2018-12-20T01:50:17.812Z,75.52
2018-12-20T01:52:46.242Z,75.78
2018-12-20T01:55:15.168Z,75.22
2018-12-20T01:57:43.955Z,75.44
2018-12-20T02:00:12.691Z,75.84
2018-12-20T02:02:41.254Z,75.81
2018-12-20T02:05:09.809Z,75.87
2018-12-20T02:07:38.795Z,76.06
2018-12-20T02:10:07.396Z,76.09
2018-12-20T02:12:36.091Z,75.96
2018-12-20T02:15:06.722Z,75.53
2018-12-20T02:17:35.605Z,75.62
2018-12-20T02:20:05.102Z,75.91
2018-12-20T02:22:34.035Z,76.06
2018-12-20T02:25:02.909Z,76.08
2018-12-20T02:27:31.407Z,75.91
2018-12-20T02:29:59.987Z,76.24
2018-12-20T02:32:28.467Z,76.26
2018-12-20T02:34:56.955Z,76.53
2018-12-20T02:37:25.393Z,76.72
2018-12-20T02:39:53.980Z,76.28
2018-12-20T02:42:22.485Z,76.55
2018-12-20T02:44:51.034Z,76.58
2018-12-20T02:47:22.098Z,76.51
2018-12-20T02:49:50.754Z,76.56
2018-12-20T02:52:19.240Z,76.17
2018-12-20T02:54:47.680Z,76.65
2018-12-20T02:57:16.192Z,76.69
2018-12-20T02:59:44.689Z,76.67
2018-12-20T03:02:13.244Z,76.91
2018-12-20T03:04:41.823Z,76.56
2018-12-20T03:07:10.535Z,76.37
2018-12-20T03:09:39.148Z,76.23
2018-12-20T03:12:08.168Z,76.00
2018-12-20T03:14:36.974Z,76.61
2018-12-20T03:17:07.319Z,75.92
2018-12-20T03:19:35.972Z,76.12
2018-12-20T03:22:04.690Z,76.44
2018-12-20T03:24:33.761Z,76.98
2018-12-20T03:27:02.483Z,77.14
2018-12-20T03:29:31.517Z,77.01
2018-12-20T03:32:00.181Z,77.15
2018-12-20T03:34:28.822Z,76.71
2018-12-20T03:36:57.575Z,77.11
2018-12-20T03:39:26.114Z,76.95
2018-12-20T03:41:54.588Z,77.21
2018-12-20T03:44:23.159Z,76.88
2018-12-20T03:46:51.721Z,76.87
2018-12-20T03:49:20.259Z,77.25
2018-12-20T03:51:49.206Z,76.69
2018-12-20T03:54:17.754Z,77.21
2018-12-20T03:56:46.485Z,76.95
2018-12-20T03:59:15.011Z,77.47
2018-12-20T04:01:43.621Z,77.20
2018-12-20T04:04:12.275Z,77.09
2018-12-20T04:06:40.755Z,77.20
2018-12-20T04:09:09.195Z,76.72
2018-12-20T04:11:37.967Z,76.69
2018-12-20T04:14:06.524Z,77.08
2018-12-20T04:16:35.218Z,77.30
2018-12-20T04:19:04.167Z,76.59
2018-12-20T04:21:32.808Z,77.56
2018-12-20T04:24:01.590Z,77.80
2018-12-20T04:26:30.324Z,78.36
2018-12-20T04:28:58.997Z,78.74
2018-12-20T04:31:27.645Z,78.80
2018-12-20T04:33:56.926Z,78.39
2018-12-20T04:36:25.860Z,78.45
2018-12-20T04:38:56.412Z,78.21
2018-12-20T04:41:25.962Z,77.99
2018-12-20T04:43:54.856Z,78.09
2018-12-20T04:46:23.745Z,77.86
2018-12-20T04:48:52.534Z,77.73
2018-12-20T04:51:21.131Z,77.94
2018-12-20T04:53:49.673Z,77.82
2018-12-20T04:56:18.636Z,77.90
2018-12-20T04:58:47.317Z,78.07
2018-12-20T05:01:15.932Z,78.15
2018-12-20T05:03:44.494Z,78.40
2018-12-20T05:06:13.001Z,77.90
2018-12-20T05:08:41.781Z,78.42
2018-12-20T05:11:10.315Z,78.57
2018-12-20T05:13:38.772Z,78.90
2018-12-20T05:16:07.224Z,78.58
2018-12-20T05:18:36.819Z,78.82
2018-12-20T05:21:05.673Z,78.90
2018-12-20T05:23:34.643Z,78.58
2018-12-20T05:26:03.375Z,78.97
2018-12-20T05:28:32.153Z,78.54
2018-12-20T05:31:00.772Z,78.74
2018-12-20T05:33:29.541Z,78.75
2018-12-20T05:35:58.012Z,78.95
2018-12-20T05:38:26.551Z,78.71
2018-12-20T05:40:55.768Z,79.45
2018-12-20T05:43:24.295Z,78.98
2018-12-20T05:45:53.127Z,79.07
2018-12-20T05:48:22.706Z,78.89
2018-12-20T05:50:51.268Z,78.99
2018-12-20T05:53:19.974Z,78.50
2018-12-20T05:55:48.782Z,78.68
2018-12-20T05:58:17.631Z,78.99
2018-12-20T06:00:46.627Z,78.63
2018-12-20T06:03:15.235Z,78.99
2018-12-20T06:05:43.757Z,79.30
2018-12-20T06:08:12.523Z,79.34
2018-12-20T06:10:41.222Z,79.41
2018-12-20T06:13:09.978Z,79.25
2018-12-20T06:15:39.131Z,79.13
2018-12-20T06:18:07.954Z,79.26
2018-12-20T06:20:36.720Z,79.32
2018-12-20T06:23:05.259Z,79.14
2018-12-20T06:25:34.211Z,79.18
2018-12-20T06:28:02.635Z,79.14
2018-12-20T06:30:31.110Z,79.25
2018-12-20T06:32:59.559Z,79.20
2018-12-20T06:35:29.719Z,79.15
2018-12-20T06:37:58.866Z,79.16
2018-12-20T06:40:27.522Z,79.07
2018-12-20T06:42:55.964Z,78.92
2018-12-20T06:45:24.447Z,78.60
2018-12-20T06:47:52.909Z,78.39
2018-12-20T06:50:21.335Z,84.20
2018-12-20T06:52:49.836Z,81.65
2018-12-20T06:55:19.062Z,79.96
2018-12-20T06:57:47.490Z,80.29
2018-12-20T07:00:15.965Z,78.01
2018-12-20T07:02:44.425Z,77.59
2018-12-20T07:05:12.836Z,77.70
2018-12-20T07:07:41.327Z,76.76
2018-12-20T07:10:09.748Z,76.66
2018-12-20T07:12:38.691Z,76.27
2018-12-20T07:15:10.613Z,76.47
2018-12-20T07:17:39.044Z,76.79
2018-12-20T07:20:07.811Z,77.24
2018-12-20T07:22:36.432Z,77.71
2018-12-20T07:25:06.695Z,77.83
2018-12-20T07:27:36.405Z,78.12
2018-12-20T07:30:09.715Z,78.64
2018-12-20T07:32:38.204Z,79.20
2018-12-20T07:35:07.580Z,79.48
2018-12-20T07:37:36.121Z,80.01
2018-12-20T07:40:07.478Z,80.53
2018-12-20T07:42:35.988Z,80.90
2018-12-20T07:45:05.701Z,80.99
2018-12-20T07:47:34.268Z,80.95
2018-12-20T07:50:02.854Z,81.18
2018-12-20T07:52:31.658Z,81.41
2018-12-20T07:55:00.374Z,80.98
2018-12-20T07:57:28.856Z,81.35
2018-12-20T07:59:58.092Z,80.86
2018-12-20T08:02:26.525Z,81.21
2018-12-20T08:04:55.031Z,81.29
2018-12-20T08:07:24.006Z,81.35
2018-12-20T08:09:52.434Z,81.74
2018-12-20T08:12:20.937Z,82.21
2018-12-20T08:14:49.491Z,82.04
2018-12-20T08:17:17.965Z,82.25
2018-12-20T08:19:46.480Z,82.66
2018-12-20T08:22:14.930Z,83.20
2018-12-20T08:24:43.636Z,82.82
2018-12-20T08:27:12.119Z,83.11
2018-12-20T08:29:40.845Z,83.51
2018-12-20T08:32:09.300Z,83.82
2018-12-20T08:34:37.862Z,83.26
2018-12-20T08:37:06.316Z,83.47
2018-12-20T08:39:34.752Z,83.06
2018-12-20T08:42:03.235Z,82.94
2018-12-20T08:44:31.956Z,83.29
2018-12-20T08:47:02.194Z,83.44
2018-12-20T08:49:30.741Z,83.16
2018-12-20T08:52:00.506Z,82.68
2018-12-20T08:54:28.955Z,82.38
2018-12-20T08:56:57.446Z,82.45
2018-12-20T08:59:25.896Z,82.10
2018-12-20T09:01:55.363Z,82.84
2018-12-20T09:04:24.047Z,82.20
2018-12-20T09:06:52.503Z,82.68
2018-12-20T09:09:21.144Z,82.92
2018-12-20T09:11:49.860Z,82.61
2018-12-20T09:14:18.305Z,82.48
2018-12-20T09:16:47.017Z,82.39
2018-12-20T09:19:15.502Z,82.60
2018-12-20T09:21:44.245Z,82.52
2018-12-20T09:24:12.697Z,82.32
2018-12-20T09:26:41.188Z,82.46
2018-12-20T09:29:09.632Z,82.32
2018-12-20T09:31:38.088Z,81.87
2018-12-20T09:34:06.603Z,81.54
2018-12-20T09:36:35.065Z,81.53
2018-12-20T09:39:07.132Z,81.11
2018-12-20T09:41:35.540Z,81.10
2018-12-20T09:44:04.310Z,81.17
2018-12-20T09:46:34.708Z,80.94
2018-12-20T09:49:03.421Z,80.86
2018-12-20T09:51:32.742Z,80.41
2018-12-20T09:54:01.374Z,80.37
2018-12-20T09:56:29.812Z,80.65
2018-12-20T09:58:58.272Z,80.37
2018-12-20T10:01:26.720Z,80.43
2018-12-20T10:03:55.945Z,79.47
2018-12-20T10:06:24.901Z,79.66
2018-12-20T10:08:53.427Z,80.16
2018-12-20T10:11:22.076Z,80.10
2018-12-20T10:13:51.646Z,80.12
2018-12-20T10:16:20.136Z,79.52
2018-12-20T10:18:48.552Z,79.55
2018-12-20T10:21:16.987Z,79.69
2018-12-20T10:23:45.528Z,79.79
2018-12-20T10:26:13.984Z,79.73
2018-12-20T10:28:42.432Z,80.16
2018-12-20T10:31:10.918Z,79.84
2018-12-20T10:33:40.564Z,79.34
2018-12-20T10:36:09.065Z,79.65
2018-12-20T10:38:37.569Z,79.30
2018-12-20T10:41:06.245Z,78.73
2018-12-20T10:43:34.660Z,78.64
2018-12-20T10:46:03.156Z,78.48
2018-12-20T10:48:31.851Z,77.97
2018-12-20T10:51:00.320Z,77.89
2018-12-20T10:53:28.825Z,78.37
2018-12-20T10:55:57.273Z,79.09
2018-12-20T10:58:25.717Z,77.83
2018-12-20T11:00:59.775Z,78.27
2018-12-20T11:03:34.504Z,78.52
2018-12-20T11:06:05.775Z,78.40
2018-12-20T11:08:36.300Z,78.83
2018-12-20T11:11:09.319Z,78.02
2018-12-20T11:13:37.748Z,77.51
2018-12-20T11:16:06.365Z,77.61
2018-12-20T11:18:35.123Z,76.94
2018-12-20T11:21:03.568Z,76.79
2018-12-20T11:23:32.013Z,75.76
2018-12-20T11:26:02.148Z,76.03
2018-12-20T11:28:30.613Z,75.82
2018-12-20T11:30:59.079Z,75.79
2018-12-20T11:33:28.072Z,76.00
2018-12-20T11:35:56.556Z,75.58
2018-12-20T11:38:24.990Z,76.08
2018-12-20T11:40:54.646Z,76.52
2018-12-20T11:43:23.331Z,76.70
2018-12-20T11:45:51.774Z,76.46
2018-12-20T11:48:20.270Z,74.91
2018-12-20T11:50:48.708Z,75.96
2018-12-20T11:53:17.178Z,75.68
2018-12-20T11:55:45.662Z,75.82
2018-12-20T11:58:14.091Z,75.26
2018-12-20T12:00:42.775Z,75.89
2018-12-20T12:03:11.268Z,75.80
2018-12-20T12:05:40.050Z,75.96
2018-12-20T12:08:08.499Z,74.99
2018-12-20T12:10:37.009Z,75.69
2018-12-20T12:13:05.447Z,76.04
2018-12-20T12:15:33.907Z,76.64
2018-12-20T12:18:02.430Z,79.48
2018-12-20T12:20:30.904Z,79.15
2018-12-20T12:22:59.352Z,77.21
2018-12-20T12:25:28.020Z,77.38
2018-12-20T12:27:56.472Z,77.09
2018-12-20T12:30:25.463Z,77.45
2018-12-20T12:32:53.960Z,77.62
2018-12-20T12:35:22.464Z,77.69
2018-12-20T12:37:51.185Z,78.02
2018-12-20T12:40:19.659Z,77.62
2018-12-20T12:42:48.108Z,77.00
2018-12-20T12:45:16.526Z,77.38
2018-12-20T12:47:50.515Z,77.45
2018-12-20T12:50:19.114Z,77.67
2018-12-20T12:52:47.570Z,77.78
2018-12-20T12:55:16.080Z,78.29
2018-12-20T12:57:44.501Z,78.86
2018-12-20T13:00:15.244Z,79.28
2018-12-20T13:02:43.831Z,79.74
2018-12-20T13:05:12.540Z,80.17
2018-12-20T13:07:41.199Z,80.59
2018-12-20T13:10:09.663Z,80.79
2018-12-20T13:12:38.112Z,80.69
2018-12-20T13:15:09.961Z,80.58
2018-12-20T13:17:38.438Z,80.33
2018-12-20T13:20:08.932Z,80.55
2018-12-20T13:22:37.353Z,80.66
2018-12-20T13:25:06.383Z,80.65
2018-12-20T13:27:34.848Z,80.68
2018-12-20T13:30:06.199Z,80.41
2018-12-20T13:32:34.703Z,80.26
2018-12-20T13:35:03.204Z,80.31
2018-12-20T13:37:31.903Z,80.32
2018-12-20T13:40:00.580Z,80.27
2018-12-20T13:42:28.968Z,80.10
2018-12-20T13:44:57.420Z,79.93
2018-12-20T13:47:25.868Z,79.85
2018-12-20T13:49:54.326Z,80.26
2018-12-20T13:52:22.821Z,80.63
2018-12-20T13:54:51.266Z,80.89
2018-12-20T13:57:19.668Z,81.04
2018-12-20T13:59:48.180Z,81.10
2018-12-20T14:02:16.660Z,81.29
2018-12-20T14:04:45.207Z,81.57
2018-12-20T14:07:13.689Z,81.70
2018-12-20T14:09:42.130Z,81.90
2018-12-20T14:12:10.735Z,82.46
2018-12-20T14:14:39.200Z,82.47
2018-12-20T14:17:07.684Z,82.80
2018-12-20T14:19:36.140Z,82.88
2018-12-20T14:22:04.636Z,83.18
2018-12-20T14:24:33.090Z,83.40
2018-12-20T14:27:01.528Z,83.47
2018-12-20T14:29:30.016Z,83.51
2018-12-20T14:31:58.448Z,83.42
2018-12-20T14:34:26.934Z,83.55
2018-12-20T14:36:55.423Z,83.87
2018-12-20T14:39:23.879Z,84.13
2018-12-20T14:41:52.334Z,84.45
2018-12-20T14:44:20.832Z,84.77
2018-12-20T14:46:49.287Z,84.82
2018-12-20T14:49:17.736Z,84.89
2018-12-20T14:51:46.211Z,84.91
2018-12-20T14:54:14.839Z,85.01
2018-12-20T14:56:43.339Z,85.07
2018-12-20T14:59:11.826Z,85.23
2018-12-20T15:01:40.277Z,86.54
2018-12-20T15:04:08.733Z,89.73
2018-12-20T15:06:37.379Z,87.23
2018-12-20T15:09:07.077Z,84.97
2018-12-20T15:11:35.564Z,81.81
2018-12-20T15:14:04.659Z,78.99
2018-12-20T15:16:33.079Z,80.29
2018-12-20T15:19:01.533Z,81.25
2018-12-20T15:21:30.016Z,82.03
2018-12-20T15:23:58.467Z,82.88
2018-12-20T15:26:27.146Z,84.63
2018-12-20T15:28:55.951Z,84.11
2018-12-20T15:31:25.149Z,83.60
2018-12-20T15:33:53.606Z,82.52
2018-12-20T15:36:22.308Z,81.20
2018-12-20T15:38:50.767Z,82.76
2018-12-20T15:43:53.107Z,82.90
2018-12-20T15:46:22.317Z,82.14
2018-12-20T15:48:56.392Z,82.67
2018-12-20T15:51:25.545Z,83.00
2018-12-20T15:53:54.892Z,83.43
2018-12-20T15:56:23.369Z,84.13
2018-12-20T15:58:52.916Z,84.43
2018-12-20T16:01:21.440Z,84.83
2018-12-20T16:03:50.308Z,84.78
2018-12-20T16:06:18.887Z,85.06
2018-12-20T16:08:49.292Z,85.54
2018-12-20T16:11:18.140Z,85.93
2018-12-20T16:13:46.612Z,85.97
2018-12-20T16:16:15.176Z,86.20
2018-12-20T16:18:43.705Z,86.29
2018-12-20T16:23:45.872Z,86.50
2018-12-20T16:26:15.116Z,86.30
2018-12-20T16:28:43.587Z,86.39
2018-12-20T16:31:12.160Z,86.34
2018-12-20T16:33:40.831Z,86.47
2018-12-20T16:36:09.536Z,86.65
2018-12-20T16:38:39.077Z,86.83
2018-12-20T16:41:07.619Z,86.92
2018-12-20T16:43:36.747Z,86.85
2018-12-20T16:46:06.495Z,86.94
2018-12-20T16:48:36.196Z,86.93
2018-12-20T16:51:05.220Z,86.87
2018-12-20T16:53:39.774Z,86.80
2018-12-20T16:56:09.576Z,87.21
2018-12-20T16:58:38.072Z,87.45
2018-12-20T17:01:07.096Z,87.48
2018-12-20T17:03:38.759Z,87.40
2018-12-20T17:06:07.316Z,87.39
2018-12-20T17:08:35.959Z,89.14
2018-12-20T17:11:05.058Z,87.90
2018-12-20T17:13:35.163Z,87.18
2018-12-20T17:16:03.710Z,87.00
2018-12-20T17:18:32.410Z,87.03
2018-12-20T17:21:04.043Z,87.49
2018-12-20T17:23:35.738Z,87.52
2018-12-20T17:26:04.914Z,87.21
2018-12-20T17:28:33.951Z,87.50
2018-12-20T17:31:02.962Z,88.00
2018-12-20T17:33:31.710Z,87.82
2018-12-20T17:36:00.713Z,87.84
2018-12-20T17:38:30.035Z,87.47
2018-12-20T17:40:58.685Z,87.70
2018-12-20T17:43:27.526Z,88.06
2018-12-20T17:45:56.388Z,87.89
2018-12-20T17:48:29.066Z,87.86
2018-12-20T17:50:56.574Z,88.22
2018-12-20T17:53:26.133Z,88.37
2018-12-20T17:55:55.890Z,88.33
2018-12-20T17:58:25.132Z,88.35
2018-12-20T18:00:55.602Z,88.31
2018-12-20T18:03:24.970Z,88.22
2018-12-20T18:05:54.271Z,88.14
2018-12-20T18:08:22.942Z,88.21
2018-12-20T18:10:51.657Z,88.24
2018-12-20T18:13:20.300Z,88.20
2018-12-20T18:15:49.264Z,88.21
2018-12-20T18:18:19.337Z,88.26
2018-12-20T18:20:48.665Z,88.05
2018-12-20T18:23:18.179Z,88.06
2018-12-20T18:25:46.929Z,88.12
2018-12-20T18:28:16.562Z,88.09
2018-12-20T18:30:45.397Z,88.17
2018-12-20T18:33:14.055Z,88.29
2018-12-20T18:35:42.728Z,88.28
2018-12-20T18:38:11.286Z,88.25
2018-12-20T18:40:40.717Z,88.21
2018-12-20T18:43:09.375Z,88.06
2018-12-20T18:45:39.059Z,87.86
2018-12-20T18:48:07.721Z,87.27
2018-12-20T18:50:36.442Z,87.34
2018-12-20T18:53:05.843Z,87.89
2018-12-20T18:55:34.567Z,88.06
2018-12-20T18:58:03.147Z,88.21
2018-12-20T19:00:31.926Z,88.63
2018-12-20T19:03:00.496Z,89.44
2018-12-20T19:05:29.032Z,88.50
2018-12-20T19:07:58.551Z,88.23
2018-12-20T19:10:27.247Z,88.11
2018-12-20T19:12:56.040Z,88.17
2018-12-20T19:15:24.859Z,88.30
2018-12-20T19:17:54.707Z,88.30
2018-12-20T19:20:23.348Z,88.08
2018-12-20T19:22:55.070Z,88.09
2018-12-20T19:25:23.708Z,88.36
2018-12-20T19:27:52.431Z,88.59
2018-12-20T19:30:22.218Z,88.92
2018-12-20T19:32:51.357Z,89.20
2018-12-20T19:35:20.036Z,89.24
2018-12-20T19:37:49.137Z,88.95
2018-12-20T19:42:51.341Z,88.61
2018-12-20T19:45:24.365Z,88.45
2018-12-20T19:47:53.028Z,89.42
2018-12-20T19:50:22.364Z,88.91
2018-12-20T19:52:52.128Z,88.02
2018-12-20T19:55:21.095Z,87.71
2018-12-20T19:57:50.272Z,87.54
2018-12-20T20:00:19.287Z,87.44
2018-12-20T20:02:49.089Z,87.77
2018-12-20T20:07:53.390Z,88.09
2018-12-20T20:10:22.838Z,87.94
2018-12-20T20:12:52.799Z,87.94
2018-12-20T20:15:21.569Z,87.82
2018-12-20T20:17:53.593Z,87.70
2018-12-20T20:20:23.062Z,88.10
2018-12-20T20:22:52.111Z,88.35
2018-12-20T20:25:20.806Z,88.31
2018-12-20T20:27:50.476Z,88.22
2018-12-20T20:30:19.068Z,88.42
2018-12-20T20:32:48.017Z,88.28
2018-12-20T20:35:19.507Z,88.38
2018-12-20T20:37:48.186Z,88.24
2018-12-20T20:40:16.955Z,88.40
2018-12-20T20:42:48.133Z,88.29
2018-12-20T20:45:16.923Z,88.32
2018-12-20T20:47:45.547Z,88.40
2018-12-20T20:50:22.400Z,88.29
2018-12-20T20:52:46.978Z,88.36
2018-12-20T20:55:15.677Z,88.36
2018-12-20T20:57:44.485Z,88.46
2018-12-20T21:00:13.321Z,88.43
2018-12-20T21:02:42.350Z,88.36
2018-12-20T21:05:10.984Z,88.36
2018-12-20T21:07:39.605Z,87.76
2018-12-20T21:10:10.064Z,88.05
2018-12-20T21:12:39.329Z,88.05
2018-12-20T21:15:09.478Z,88.33
2018-12-20T21:17:38.076Z,88.42
2018-12-20T21:20:08.441Z,88.71
2018-12-20T21:22:37.069Z,89.18
2018-12-20T21:25:05.881Z,89.32
2018-12-20T21:27:34.711Z,89.22
2018-12-20T21:30:04.109Z,89.03
2018-12-20T21:32:32.715Z,88.79
2018-12-20T21:35:01.285Z,88.16
2018-12-20T21:37:29.961Z,88.37
2018-12-20T21:39:58.566Z,88.65
2018-12-20T21:42:27.097Z,88.71
2018-12-20T21:44:55.614Z,88.53
2018-12-20T21:47:24.216Z,88.68
2018-12-20T21:49:52.740Z,89.01
2018-12-20T21:52:21.253Z,89.16
2018-12-20T21:54:49.862Z,89.02
2018-12-20T21:57:18.368Z,89.22
2018-12-20T21:59:46.918Z,89.16
2018-12-20T22:02:15.452Z,89.34
2018-12-20T22:04:44.326Z,89.39
2018-12-20T22:07:12.831Z,89.15
2018-12-20T22:09:41.356Z,89.08
2018-12-20T22:12:09.805Z,89.41
2018-12-20T22:14:38.287Z,89.46
2018-12-20T22:17:06.763Z,89.71
2018-12-20T22:19:35.202Z,89.28
2018-12-20T22:22:03.640Z,89.47
2018-12-20T22:24:32.146Z,89.45
2018-12-20T22:27:00.617Z,89.31
2018-12-20T22:29:29.707Z,89.82
2018-12-20T22:31:58.165Z,89.67
2018-12-20T22:34:26.601Z,89.11
2018-12-20T22:36:55.046Z,89.04
2018-12-20T22:39:23.579Z,89.28
2018-12-20T22:41:52.023Z,89.29
2018-12-20T22:44:20.494Z,89.32
2018-12-20T22:46:49.190Z,89.52
2018-12-20T22:49:17.685Z,89.31
2018-12-20T22:51:46.133Z,89.06
2018-12-20T22:54:14.619Z,89.47
2018-12-20T22:56:43.076Z,89.00
2018-12-20T22:59:11.556Z,88.87
2018-12-20T23:01:40.036Z,88.71
2018-12-20T23:04:09.121Z,89.37
2018-12-20T23:06:37.554Z,89.35
2018-12-20T23:09:06.701Z,89.92
2018-12-20T23:11:35.643Z,90.57
2018-12-20T23:14:04.176Z,90.46
2018-12-20T23:16:32.686Z,90.43
2018-12-20T23:19:01.416Z,90.80
2018-12-20T23:21:29.886Z,90.82
2018-12-20T23:23:58.372Z,90.51
2018-12-20T23:26:26.856Z,90.34
2018-12-20T23:28:55.546Z,90.40
2018-12-20T23:31:24.017Z,90.77
2018-12-20T23:33:52.476Z,89.96
2018-12-20T23:36:21.175Z,89.78
2018-12-20T23:38:49.698Z,90.61
2018-12-20T23:41:18.134Z,90.96
2018-12-20T23:43:46.889Z,91.13
2018-12-20T23:46:15.409Z,91.12
2018-12-20T23:48:43.891Z,91.16
2018-12-20T23:51:13.761Z,90.47
2018-12-20T23:53:48.600Z,90.58
2018-12-20T23:56:17.287Z,90.59
2018-12-20T23:58:45.737Z,90.29
